aviador You're here:

KGXY Decoded Metar

GREELEY/WELD in CO, USA
Report Time2018-05-28 04:56:00
UTC Time2018-05-28 05:12:08
Flight Rules vfr VFR
Wind040° at 16 Gusting to 23 kt
W.Decomp.*RWY 34: 10.5 kt HW 12.1 kt RCW
RWY 09: 7.8 kt HW 14 kt LCW
W.Rank040° ranks 16
Current wind is above 040° avg. (7.4)
Visibility9999 m
Phenomena:N/A
Clouds:Overcast 070 Hf
Expected CloudBase > 3,200 ft AGL from Temp-Dew spread
Ceiling7,000 ft
Temp17°C (ISA +11)
Dew Point09°C (59% RH)
AAT11.0°C
QNH1016 hPa
Density Alt6,033 ft
Elevation4,659 ft
Report Wrong Elevation
Raw Report
KGXY 280456Z AUTO 04016G23KT 10SM OVC070 17/09 A3001 RMK AO2 LTG
DSNT NE SLP122 T01720094=

Extra information for KGXY:More info

Metar Taf Metar & Taf Last 4 Metars F.Rules Stats Wind Profile Meteogram Temp Stats Airport Information Weather charts Add Link Nearby VenuesMetar ALERT Operation Metar Decoded Social comments

AIRNAV info for KGXY